Terminal Aerodrome Forecast
Issued by NWS

Home | Current Version | Previous Version | Text Only | Print | Product List | Glossary On
Versions: 1 2 3 4 5 6 7 8 9 10 11 12
685
FTUS44 KSJT 050531
TAFBBD
TAF
KBBD 050531Z 0506/0606 01005KT P6SM -RA OVC018
     FM051200 01004KT 2SM -RA BR OVC010
     FM051800 VRB03KT 4SM -RA BR OVC010
     FM052100 24003KT P6SM -RA OVC015
     FM060000 21004KT P6SM SCT250
      AMD NOT SKED=

USA.gov is the U.S. government's official web portal to all federal, state and local government web resources and services.